Weather observations for the past three days for
Fort Eustis / Felker
Metric (Imperial)
Date Time (edt) Wind (kph) Vis. (km) Weather Sky Cond. Temperature (ºC) Relative Humidity Wind Chill (°C) Heat Index (°C) Pressure Precipitation (cm)
Air Dwpt 6 hour altimeter (cm) sea level (mb) 1 hr 3 hr 6 hr
Max. Min.
06 11:55 NE 6 16.09 Fair CLR 28 14.2 43% 28 76.05 1014.2
06 10:55 N 11 16.09 A Few Clouds FEW130 27.2 14.9 47% 27 76.05 1014.2
06 09:55 NE 11 16.09 A Few Clouds FEW120 26 15.9 54% 27 76.02 1013.9
06 08:55 NE 7 16.09 Fair CLR 24.5 17.9 67% 25 76 1013.5
06 07:55 N 7 16.09 Partly Cloudy SCT110 24.6 20.3 25.8 22.8 77% 25 75.97 1013.2
06 06:55 Calm 16.09 Mostly Cloudy SCT110 BKN130 23.7 21 85% 75.92 1012.5
06 05:55 Calm 16.09 Mostly Cloudy FEW037 BKN070 23.3 21.2 88% 75.87 1011.8
06 04:55 Calm 16.09 Mostly Cloudy BKN050 22.9 20.4 86% 75.84 1011.5
06 03:55 Calm 16.09 Overcast OVC120 22.8 21 90% 75.82 1011.2
06 02:55 Calm 16.09 Partly Cloudy SCT055 24.8 23 90% 25 75.79 1010.8
06 01:55 Calm 16.09 Fair CLR 25.2 23.6 25.2 23.3 91% 26 75.82 1011.2
06 00:55 NE 6 16.09 Fair CLR 23.4 21.1 87% 75.84 1011.5
05 23:55 N 6 16.09 A Few Clouds FEW095 24.1 21.6 86% 24 75.84 1011.5
05 22:55 N 6 16.09 Overcast OVC140 24.5 21.8 85% 25 75.87 1011.8
05 21:55 Calm 16.09 Mostly Cloudy BKN065 BKN110 24.4 21.9 86% 25 75.87 1011.8
05 20:55 NE 6 16.09 Mostly Cloudy BKN130 24.6 21.5 83% 25 75.82 1011.2
05 19:55 Calm 16.09 Fair CLR 25.2 22.5 28.2 23.3 85% 26 75.77 1010.5 1.78
05 18:55 Calm 16.09 Fair CLR 24.4 21.5 84% 25 75.77 1010.5
05 17:55 Calm 16.09 Partly Cloudy SCT100 25.7 23 85% 27 75.77 1010.5
05 16:55 N 9 16.09 Light Rain FEW017 25.8 22.7 83% 27 75.77 1010.5 0.05 1.78
05 15:55 NW 7 16.09 Mostly Cloudy BKN090 25.8 22.3 81% 27 75.77 1010.5
05 13:55 NW 31 G 43 2.01 Thunderstorm Heavy Rain Fog/Mist BKN023 OVC048 24.1 22.1 31.4 24.1 89% 24 75.95 1012.9 1.19 1.19
05 12:55 NW 9 16.09 A Few Clouds FEW060 FEW200 30.5 20.4 55% 33 75.84 1011.5
05 11:55 N 7 16.09 Fair CLR 30.2 20.4 56% 32 75.84 1011.5
05 10:55 N 13 16.09 Fair CLR 29.6 20.1 57% 32 75.87 1011.8
05 09:55 N 9 16.09 Fair CLR 28 20.3 63% 30 75.82 1011.2
05 08:55 N 9 16.09 Fair CLR 27.1 21.8 73% 29 75.82 1011.2
05 07:55 NW 9 16.09 Fair CLR 25.5 21.8 27.2 23.3 80% 27 75.82 1011.2
05 06:55 N 6 16.09 Fair CLR 25.1 22.6 86% 26 75.82 1011.2
05 05:55 NW 9 16.09 Fair CLR 23.7 21.9 90% 75.77 1010.5
05 04:55 NW 15 16.09 Fair CLR 23.7 21.7 89% 75.79 1010.8
05 03:55 NW 17 16.09 Fair CLR 23.6 21.5 88% 75.79 1010.8
05 02:55 W 20 16.09 Fair CLR 23.8 21.1 85% 75.82 1011.2
05 01:55 NW 20 16.09 Fair CLR 24.4 21.3 30.8 24.2 83% 25 75.87 1011.8 0.03
05 00:55 NW 13 16.09 Fair CLR 24.3 21.2 83% 25 75.92 1012.5
04 23:55 NW 13 16.09 Fair CLR 24.7 21.4 82% 25 75.92 1012.5
04 22:55 Calm 16.09 Fair CLR 25.3 20.7 76% 26 75.9 1012.2 0.03
04 21:55 W 11 16.09 A Few Clouds FEW100 25.2 21.9 82% 26 76.05 1014.2
04 20:55 SW 11 16.09 Fair CLR 25.3 22.2 83% 26 75.84 1011.5 0.03
04 19:55 S 15 16.09 Thunderstorm Light Rain CLR 28.8 24.1 36.8 28.8 76% 33 76 1013.5 0.05 0.05
04 18:55 E 11 16.09 Fair CLR 32.1 23.8 62% 38 75.9 1012.2
04 17:55 E 9 16.09 Fair CLR 34.1 22.8 52% 39 75.87 1011.8
04 16:55 N 6 16.09 Fair CLR 35.5 20.9 43% 39 75.82 1011.2
04 15:55 NW 11 16.09 Fair CLR 36.2 21.2 42% 40 75.84 1011.5
04 14:55 W 9 16.09 Fair CLR 36 21.8 44% 40 75.92 1012.5
04 13:55 NW 11 16.09 Partly Cloudy FEW070 SCT250 34.9 22.9 35.5 27.5 50% 40 75.97 1013.2
04 12:55 W 11 16.09 A Few Clouds FEW065 34.9 23.5 52% 41 76 1013.5
04 11:55 N 9 16.09 A Few Clouds FEW070 33.3 24.4 60% 40 76.05 1014.2
04 10:55 NW 11 16.09 Fair CLR 31.8 23.6 62% 37 76.05 1014.2
04 09:55 NW 9 16.09 Fair CLR 30.5 23.6 67% 35 76.02 1013.9
04 08:55 W 7 16.09 Fair CLR 28.9 23.8 74% 33 76.05 1014.2
04 07:55 SW 9 16.09 A Few Clouds FEW250 27.4 23.6 29.5 25.9 80% 31 76.05 1014.2
04 06:55 SW 7 16.09 A Few Clouds FEW250 27.1 23.9 83% 30 76.02 1013.9
04 05:55 SE 6 16.09 Fair CLR 26.1 23.3 85% 28 76.07 1014.5
04 04:55 S 13 16.09 A Few Clouds FEW075 27.1 22.9 78% 30 76.07 1014.5
04 03:55 Calm 16.09 Fair CLR 29.3 23.5 71% 34 76.05 1014.2
04 02:55 SW 11 16.09 A Few Clouds FEW160 28.9 23.3 72% 33 75.97 1013.2
04 01:55 SW 11 16.09 Fair CLR 28.7 23.6 32 28.7 74% 33 76.02 1013.9
04 00:55 SW 9 16.09 Fair CLR 29 24.3 76% 34 76.07 1014.5
03 23:55 S 7 16.09 Fair CLR 29.8 25.1 76% 36 76.07 1014.5
03 22:55 S 11 16.09 Fair CLR 29.1 25.5 81% 35 76.07 1014.5
03 20:55 Calm 16.09 Fair CLR 30.6 25.2 73% 37 76.12 1015.2
03 19:55 SE 6 16.09 Fair CLR 32.2 24.7 35.2 30.3 65% 39 76.05 1014.2
03 18:55 Calm 16.09 Fair CLR 34 22.1 50% 38 76.02 1013.9
03 17:55 NW 6 16.09 Fair CLR 34.6 21.6 47% 39 76.02 1013.9
03 16:55 N 7 16.09 Fair CLR 34.3 23.6 54% 40 76.05 1014.2
03 15:55 NW 6 16.09 Fair CLR 34.1 24 56% 41 76.1 1014.9
03 14:55 Calm 16.09 Fair CLR 33.8 24 57% 40 76.17 1015.9
03 13:55 N 7 16.09 Fair CLR 32.5 23.1 32.6 26 58% 38 76.2 1016.2
03 12:55 S 9 16.09 Fair CLR 31.1 24.7 69% 37 76.23 1016.6
Date Time (edt) Wind (kph) Vis. (km) Weather Sky Cond. Air Dwpt Max. Min. Relative Humidity Wind Chill (°C) Heat Index (°C) altimeter (cm) sea level (mb) 1 hr 3 hr 6 hr
6 hour
Temperature (ºC) Pressure Precipitation (cm)